Flight Track Log - Related Links

Times and Time Zones

All times are in EDT time to prevent confusion due to time zone crossing. See the UCA3599 flight status page for this flight to view local times or setup timezone preferences in your user account.

Time Position Orientation Groundspeed Altitude Reporting Facility
EDT Latitude Longitude Course Direction KTS MPH feet Rate Location/Type
Mon 06:07:50 AM 42.1783 -75.9644 211° Southwest 258 297 3,100  Level New York Center
Mon 06:08:50 AM 42.1436 -75.9953 213° Southwest 149 171 4,200 1,150 Climbing New York Center
Mon 06:09:50 AM 42.1064 -76.0344 218° Southwest 160 184 5,400 1,350 Climbing New York Center
Mon 06:10:50 AM 42.0650 -76.0758 217° Southwest 171 197 6,900 1,350 Climbing New York Center
Mon 06:11:50 AM 42.0281 -76.1147 218° Southwest 186 214 8,100 1,350 Climbing New York Center
Mon 06:12:50 AM 41.9800 -76.1611 216° Southwest 191 220 9,600 1,450 Climbing New York Center
Mon 06:13:00 AM 41.8099 -76.1690 211° Southwest  Level Estimated
Mon 06:13:50 AM 41.9389 -76.1994 215° Southwest 191 220 11,000  Level New York Center
Mon 06:14:50 AM 41.8972 -76.2406 216° Southwest 191 220 12,400 1,300 Climbing New York Center
Mon 06:15:50 AM 41.8644 -76.2742 217° Southwest 181 208 13,600 1,250 Climbing New York Center
Mon 06:16:50 AM 41.8189 -76.3178 216° Southwest 181 208 14,900 1,250 Climbing New York Center
Mon 06:17:50 AM 41.7794 -76.3561 216° Southwest 186 214 16,100 550 Climbing New York Center
Mon 06:18:50 AM 41.7358 -76.3969 215° Southwest 191 220 16,000 -50 Descending New York Center
Mon 06:19:50 AM 41.6903 -76.4403 215° Southwest 214 246 16,000  Level New York Center
Mon 06:20:50 AM 41.6378 -76.4914 216° Southwest 225 259 16,000  Level New York Center
Mon 06:21:50 AM 41.5811 -76.5447 215° Southwest 230 265 16,000  Level New York Center
Mon 06:22:50 AM 41.5286 -76.5958 216° Southwest 230 265 16,000 -200 Level New York Center
Mon 06:23:50 AM 41.4761 -76.6464 216° Southwest 230 265 15,600 -550 Descending New York Center
Mon 06:24:50 AM 41.4169 -76.7022 215° Southwest 243 280 14,900 -700 Descending New York Center
Mon 06:25:50 AM 41.3600 -76.7581 216° Southwest 255 293 14,200 -400 Descending New York Center
Mon 06:26:50 AM 41.2897 -76.7906 199° South 261 300 14,100 -100 Descending New York Center
Mon 06:27:50 AM 41.2225 -76.8011 187° South 271 312 14,000  Descending New York Center
Mon 06:28:50 AM 41.1486 -76.8164 189° South 271 312 14,100 50 Climbing New York Center
Mon 06:29:50 AM 41.0792 -76.8297 188° South 271 312 14,100  Level New York Center
Mon 06:30:50 AM 41.0119 -76.8428 188° South 259 298 14,100  Level New York Center
Mon 06:31:50 AM 40.9361 -76.8581 189° South 259 298 14,100  Level New York Center
Mon 06:32:50 AM 40.8731 -76.8689 187° South 259 298 14,100  Level New York Center
Mon 06:33:50 AM 40.7994 -76.8842 189° South 259 298 14,100  Level New York Center
Mon 06:34:50 AM 40.7381 -76.9008 192° South 253 291 14,100 -50 Level New York Center
Mon 06:35:50 AM 40.6658 -76.9244 194° South 253 291 14,000 -50 Descending New York Center
Mon 06:36:50 AM 40.5981 -76.9456 193° South 248 285 14,000  Level New York Center
Mon 06:37:50 AM 40.5344 -76.9672 195° South 242 278 14,000  Level New York Center
Mon 06:38:50 AM 40.4689 -76.9858 192° South 247 284 14,000  Level New York Center
Mon 06:39:50 AM 40.4011 -77.0072 194° South 247 284 14,000  Level New York Center
Mon 06:40:50 AM 40.3353 -77.0283 194° South 247 284 14,000 -50 Level New York Center
Mon 06:41:50 AM 40.2719 -77.0444 191° South 242 278 13,900 -729 Descending New York Center
Mon 06:43:51 AM 40.1333 -77.0833 192° South 270 311 11,800 -1,029 Descending Potomac TRACON
Mon 06:44:45 AM 40.0667 -77.1167 201° Southwest 269 310 10,900 -1,000 Descending Potomac TRACON
Mon 06:45:51 AM 39.9833 -77.1333 189° South 263 303 9,800 -950 Descending Potomac TRACON
Mon 06:46:45 AM 39.9167 -77.1500 191° South 260 299 9,000 -421 Descending Potomac TRACON
Mon 06:47:45 AM 39.8500 -77.1667 191° South 243 280 9,000 -250 Level Potomac TRACON
Mon 06:48:45 AM 39.7833 -77.2000 201° Southwest 245 282 8,500 -579 Descending Potomac TRACON
Mon 06:49:39 AM 39.7333 -77.2167 194° South 249 287 7,900 -667 Descending Potomac TRACON
Mon 06:50:33 AM 39.6833 -77.2500 207° Southwest 250 288 7,300 -500 Descending Potomac TRACON
Mon 06:51:27 AM 39.6167 -77.2833 201° Southwest 224 258 7,000 -550 Descending Potomac TRACON
Mon 06:52:33 AM 39.5667 -77.3167 207° Southwest 234 269 6,200 -793 Descending Potomac TRACON
Mon 06:53:28 AM 39.5167 -77.3500 207° Southwest 241 277 5,400 -939 Descending Potomac TRACON
Mon 06:54:28 AM 39.4500 -77.4000 210° Southwest 249 287 4,400 -778 Descending Potomac TRACON
Mon 06:55:16 AM 39.4000 -77.4167 194° South 245 282 4,000 -222 Descending Potomac TRACON
Mon 06:56:16 AM 39.3333 -77.4333 191° South 234 269 4,000  Level Potomac TRACON
Mon 06:57:16 AM 39.2667 -77.4333 180° South 226 260 4,000  Level Potomac TRACON
Mon 06:58:10 AM 39.2167 -77.4333 180° South 219 252 4,000 -50 Level Potomac TRACON
Mon 06:59:16 AM 39.1500 -77.4333 180° South 215 247 3,900 -567 Descending Potomac TRACON
Mon 07:00:17 AM 39.0833 -77.4333 180° South 204 235 2,800 -1,043 Descending Potomac TRACON
Mon 07:01:11 AM 39.0333 -77.4333 180° South 184 212 1,900 -895 Descending Potomac TRACON
Mon 07:02:11 AM 39.0000 -77.4333 180° South 140 161 1,100 -678 Descending Potomac TRACON
Mon 07:03:06 AM 38.9667 -77.4333 180° South 113 130 600 -545 Descending Potomac TRACON

Login

Don't have an account? Register now (free) for customized features, flight alerts, and more!